Time;durP1;ratioP1;P1;durP2;ratioP2;P2;SDS_P1;SDS_P2;PMS_P1;PMS_P2;Temp;Humidity;BMP_temperature;BMP_pressure;BME280_temperature;BME280_humidity;BME280_pressure;Samples;Min_cycle;Max_cycle;Signal;HPM_P1;HPM_P2
2024/04/10 00:01:49;;;;;;;2.23;1.90;;;;;;;9.46;80.93;153789.53;5213304;27;20583;-93
2024/04/10 00:04:17;;;;;;;2.77;2.10;;;;;;;9.43;80.86;153781.75;5213385;27;20516;-94
2024/04/10 00:06:43;;;;;;;4.70;1.77;;;;;;;9.43;81.11;153780.47;5245585;27;20524;-94
2024/04/10 00:09:11;;;;;;;2.53;1.90;;;;;;;9.40;81.79;153774.00;5244678;27;20468;-93
2024/04/10 00:11:39;;;;;;;1.77;1.67;;;;;;;9.42;81.56;153779.22;5217505;27;20471;-94
2024/04/10 00:14:07;;;;;;;2.50;1.80;;;;;;;9.45;81.30;153786.94;5244885;27;20568;-94
2024/04/10 00:16:33;;;;;;;2.30;1.63;;;;;;;9.47;81.11;153790.84;5246150;27;20548;-94
2024/04/10 00:19:01;;;;;;;2.33;2.00;;;;;;;9.45;81.28;153786.94;5248605;27;20542;-93
2024/04/10 00:21:30;;;;;;;4.80;2.00;;;;;;;9.44;81.34;153784.38;5253520;27;20243;-94
2024/04/10 00:23:59;;;;;;;2.73;2.10;;;;;;;9.43;81.55;153781.75;5219431;27;21076;-94
2024/04/10 00:26:24;;;;;;;2.47;1.90;;;;;;;9.42;81.00;153777.91;5245856;27;20778;-93
2024/04/10 00:28:55;;;;;;;3.93;1.90;;;;;;;9.38;81.43;153767.53;5244306;27;20512;-94
2024/04/10 00:31:21;;;;;;;3.20;2.20;;;;;;;9.35;81.39;153761.06;5216176;27;20262;-94
2024/04/10 00:33:49;;;;;;;3.17;2.00;;;;;;;9.32;81.58;153752.03;5243529;27;20456;-94
2024/04/10 00:36:14;;;;;;;2.33;1.80;;;;;;;9.25;81.74;153735.22;5215944;27;20240;-95
2024/04/10 00:38:43;;;;;;;3.80;1.83;;;;;;;9.23;82.23;153728.75;5245407;27;20525;-95
2024/04/10 00:41:08;;;;;;;2.10;1.90;;;;;;;9.18;82.56;153717.13;5244941;27;20232;-95
2024/04/10 00:43:36;;;;;;;2.90;1.67;;;;;;;9.16;82.39;153711.91;5245484;27;20537;-94
2024/04/10 00:46:09;;;;;;;2.10;1.80;;;;;;;9.10;82.31;153696.41;5245636;27;20263;-94
2024/04/10 00:48:37;;;;;;;3.63;2.03;;;;;;;9.08;83.06;153691.25;5217192;27;20452;-93
2024/04/10 00:51:03;;;;;;;1.90;1.70;;;;;;;9.06;82.61;153686.06;5245413;27;20520;-94
2024/04/10 00:53:32;;;;;;;2.80;1.80;;;;;;;9.07;83.12;153688.66;5245393;27;20479;-94
2024/04/10 00:55:57;;;;;;;1.90;1.70;;;;;;;9.02;83.01;153675.72;5243290;27;20516;-94
2024/04/10 00:58:26;;;;;;;2.50;2.03;;;;;;;9.01;82.81;153674.44;5245336;27;20459;-93
2024/04/10 01:00:53;;;;;;;1.73;1.60;;;;;;;8.97;82.65;153662.81;5215691;27;20279;-94
2024/04/10 01:03:24;;;;;;;2.63;1.80;;;;;;;8.91;83.70;153647.28;5244839;27;20830;-93
2024/04/10 01:05:57;;;;;;;2.60;1.93;;;;;;;8.92;83.30;153649.88;5215324;27;20463;-95
2024/04/10 01:08:25;;;;;;;3.17;1.90;;;;;;;8.91;83.69;153647.28;5243321;27;20503;-95
2024/04/10 01:10:51;;;;;;;3.13;1.77;;;;;;;8.92;83.23;153651.13;5245221;27;20455;-96
2024/04/10 01:13:19;;;;;;;2.13;1.60;;;;;;;8.92;83.21;153651.13;5215512;27;20536;-95
2024/04/10 01:15:45;;;;;;;2.10;1.80;;;;;;;8.86;83.60;153634.34;5244483;27;20275;-94
2024/04/10 01:18:13;;;;;;;3.20;1.90;;;;;;;8.83;83.43;153627.88;5214332;27;20799;-95
2024/04/10 01:20:41;;;;;;;2.20;1.73;;;;;;;8.79;83.43;153616.25;5244623;27;20244;-95
2024/04/10 01:23:12;;;;;;;2.80;2.20;;;;;;;8.75;83.41;153605.91;5215837;27;20560;-94
2024/04/10 01:25:38;;;;;;;3.20;1.77;;;;;;;8.73;83.61;153600.72;5215257;27;20472;-95
2024/04/10 01:28:07;;;;;;;4.90;2.00;;;;;;;8.71;83.96;153595.56;5245348;27;20523;-95
2024/04/10 01:30:33;;;;;;;2.13;1.60;;;;;;;8.66;83.72;153582.66;5244530;27;20244;-95
2024/04/10 01:33:01;;;;;;;3.90;2.33;;;;;;;8.61;84.06;153569.69;5242927;27;20532;-95
2024/04/10 01:35:48;;;;;;;1.87;1.40;;;;;;;8.54;83.86;153554.19;5245075;27;20742;-95
2024/04/10 01:38:19;;;;;;;3.70;1.57;;;;;;;8.52;84.13;153549.00;5215100;27;20519;-93
2024/04/10 01:40:45;;;;;;;3.17;1.60;;;;;;;8.50;84.63;153543.84;5244835;27;20491;-94
2024/04/10 01:43:13;;;;;;;2.13;1.63;;;;;;;8.46;84.59;153533.53;5243166;27;20491;-93
2024/04/10 01:45:38;;;;;;;2.20;1.63;;;;;;;8.46;84.69;153533.53;5215263;27;20584;-96
2024/04/10 01:48:08;;;;;;;3.87;1.70;;;;;;;8.43;84.73;153525.75;5214857;27;20448;-94
2024/04/10 01:50:33;;;;;;;3.20;1.47;;;;;;;8.44;84.86;153527.06;5215075;27;20789;-94
2024/04/10 01:53:01;;;;;;;2.60;2.07;;;;;;;8.45;84.53;153530.91;5242732;27;20520;-94
2024/04/10 01:55:29;;;;;;;2.77;2.27;;;;;;;8.45;84.76;153530.91;5243966;27;20279;-94
2024/04/10 01:57:58;;;;;;;3.67;1.43;;;;;;;8.40;84.62;153518.00;5244445;27;20448;-96
2024/04/10 02:00:25;;;;;;;3.50;1.80;;;;;;;8.34;84.91;153501.22;5214772;27;20506;-95
2024/04/10 02:02:53;;;;;;;2.10;1.50;;;;;;;8.30;85.37;153492.16;5214871;27;20463;-94
2024/04/10 02:05:19;;;;;;;2.87;1.67;;;;;;;8.28;85.90;153487.00;5244257;27;20483;-94
2024/04/10 02:07:47;;;;;;;2.40;1.60;;;;;;;8.28;85.67;153487.00;5215052;27;20452;-94
2024/04/10 02:10:13;;;;;;;2.17;1.37;;;;;;;8.31;85.61;153494.72;5243872;27;20237;-93
2024/04/10 02:12:43;;;;;;;3.57;1.63;;;;;;;8.33;85.76;153498.63;5243815;27;20471;-94
2024/04/10 02:15:09;;;;;;;3.37;1.23;;;;;;;8.33;85.72;153499.91;5244504;27;20243;-94
2024/04/10 02:17:37;;;;;;;4.27;1.87;;;;;;;8.29;85.78;153489.56;5243643;27;20468;-93
2024/04/10 02:20:05;;;;;;;1.87;1.50;;;;;;;8.31;85.82;153494.72;5244000;27;20224;-94
2024/04/10 02:22:34;;;;;;;2.93;1.90;;;;;;;8.27;85.68;153484.41;5242710;27;20576;-95
2024/04/10 02:24:59;;;;;;;2.10;1.77;;;;;;;8.28;85.52;153487.00;5187440;27;20492;-94
2024/04/10 02:27:27;;;;;;;4.40;2.23;;;;;;;8.24;85.76;153476.59;5242331;27;20440;-94
2024/04/10 02:29:56;;;;;;;4.13;1.77;;;;;;;8.23;86.18;153474.03;5243921;27;20684;-94
2024/04/10 02:32:24;;;;;;;5.20;1.77;;;;;;;8.22;86.07;153471.44;5243680;27;20520;-94
2024/04/10 02:34:50;;;;;;;1.73;1.57;;;;;;;8.18;86.27;153461.06;5242202;27;20595;-94
2024/04/10 02:37:18;;;;;;;1.73;1.47;;;;;;;8.15;86.07;153452.03;5242080;27;20496;-95
2024/04/10 02:39:44;;;;;;;1.80;1.30;;;;;;;8.15;86.49;153452.03;5243456;27;20488;-94
2024/04/10 02:42:12;;;;;;;3.00;1.43;;;;;;;8.17;86.78;153458.50;5243751;27;20472;-94
2024/04/10 02:44:37;;;;;;;3.10;1.77;;;;;;;8.18;86.71;153459.81;5244194;27;20236;-94
2024/04/10 02:47:08;;;;;;;1.83;1.53;;;;;;;8.22;86.63;153470.13;5242037;27;20510;-94
2024/04/10 02:49:34;;;;;;;2.10;1.63;;;;;;;8.25;86.87;153477.88;5243862;27;20258;-93
2024/04/10 02:52:03;;;;;;;1.97;1.50;;;;;;;8.24;86.87;153476.59;5243785;27;20471;-93
2024/04/10 02:54:28;;;;;;;2.40;1.80;;;;;;;8.21;86.57;153468.81;5244208;27;20730;-93
2024/04/10 02:56:57;;;;;;;1.83;1.63;;;;;;;8.15;86.60;153452.03;5244220;27;20472;-94
2024/04/10 02:59:22;;;;;;;2.70;1.80;;;;;;;8.07;86.83;153432.66;5241894;27;20275;-94
2024/04/10 03:01:51;;;;;;;2.90;1.53;;;;;;;8.03;86.98;153422.31;5241640;27;20479;-94
2024/04/10 03:04:19;;;;;;;5.73;2.13;;;;;;;8.01;86.97;153417.16;5241574;27;20247;-94
2024/04/10 03:06:47;;;;;;;3.10;1.10;;;;;;;7.94;87.12;153400.34;5243341;27;20540;-95
2024/04/10 03:09:14;;;;;;;2.00;1.63;;;;;;;7.91;86.96;153391.31;5243935;27;21023;-95
2024/04/10 03:11:42;;;;;;;2.80;2.00;;;;;;;7.88;87.51;153383.56;5213914;27;20467;-95
2024/04/10 03:14:08;;;;;;;2.00;1.40;;;;;;;7.84;87.32;153374.50;5213957;27;20500;-95
2024/04/10 03:16:36;;;;;;;2.43;1.83;;;;;;;7.81;87.21;153366.75;5241006;27;20472;-95
2024/04/10 03:19:02;;;;;;;2.70;1.60;;;;;;;7.77;87.22;153355.13;5243440;27;20592;-95
2024/04/10 03:21:32;;;;;;;2.33;1.70;;;;;;;7.76;87.37;153352.53;5243137;27;20451;-94
2024/04/10 03:23:58;;;;;;;2.30;1.43;;;;;;;7.72;87.18;153342.22;5241301;27;20232;-94
2024/04/10 03:26:26;;;;;;;2.17;1.23;;;;;;;7.66;87.27;153326.72;5214047;27;20927;-93
2024/04/10 03:28:51;;;;;;;4.20;1.70;;;;;;;7.66;87.80;153326.72;5241793;27;20632;-94
2024/04/10 03:31:20;;;;;;;3.83;1.97;;;;;;;7.66;87.67;153326.72;5213856;27;20580;-94
2024/04/10 03:33:45;;;;;;;2.57;2.00;;;;;;;7.66;87.50;153328.00;5214837;27;20246;-93
2024/04/10 03:36:14;;;;;;;2.93;1.90;;;;;;;7.64;87.44;153321.56;5242479;27;20476;-94
2024/04/10 03:38:42;;;;;;;2.10;1.53;;;;;;;7.61;87.31;153315.09;5214784;27;20731;-95
2024/04/10 03:41:10;;;;;;;2.40;1.27;;;;;;;7.56;87.18;153302.19;5243976;27;21061;-92
2024/04/10 03:43:39;;;;;;;4.53;1.57;;;;;;;7.54;87.07;153295.72;5222576;27;20447;-95
2024/04/10 03:46:08;;;;;;;4.40;1.43;;;;;;;7.49;87.32;153282.81;5215704;27;20491;-94
2024/04/10 03:48:33;;;;;;;1.77;1.47;;;;;;;7.45;87.66;153272.47;5213751;27;21067;-94
2024/04/10 03:51:01;;;;;;;2.40;1.70;;;;;;;7.46;87.79;153275.06;5242894;27;20483;-94
2024/04/10 03:53:30;;;;;;;2.87;1.73;;;;;;;7.43;87.59;153267.31;5243271;27;20244;-94
2024/04/10 03:55:58;;;;;;;3.83;1.80;;;;;;;7.42;87.98;153264.69;5212922;27;20472;-94
2024/04/10 03:58:26;;;;;;;3.30;1.67;;;;;;;7.43;88.16;153268.59;5242548;27;20500;-96
2024/04/10 04:00:52;;;;;;;2.50;2.03;;;;;;;7.49;88.08;153282.81;5243018;27;20513;-95
2024/04/10 04:03:26;;;;;;;3.50;1.83;;;;;;;7.47;88.24;153277.63;5242741;27;20449;-94
2024/04/10 04:05:52;;;;;;;2.90;1.53;;;;;;;7.48;88.02;153281.50;5240635;27;20472;-94
2024/04/10 04:08:20;;;;;;;2.63;1.73;;;;;;;7.46;88.09;153276.34;5242560;27;20444;-94
2024/04/10 04:10:46;;;;;;;2.13;1.50;;;;;;;7.46;88.08;153275.06;5212863;27;20282;-94
2024/04/10 04:13:17;;;;;;;2.40;1.43;;;;;;;7.45;88.51;153273.75;5242436;27;20527;-96
2024/04/10 04:15:44;;;;;;;3.20;1.70;;;;;;;7.48;88.44;153280.22;5240491;27;20236;-95
2024/04/10 04:18:12;;;;;;;3.07;1.73;;;;;;;7.47;88.52;153277.63;5213130;27;20466;-95
2024/04/10 04:20:37;;;;;;;2.73;1.70;;;;;;;7.46;88.54;153275.06;5242300;27;21081;-96
2024/04/10 04:23:06;;;;;;;4.47;1.83;;;;;;;7.48;88.74;153280.22;5212640;27;20436;-95
2024/04/10 04:25:35;;;;;;;2.23;1.77;;;;;;;7.48;88.58;153280.22;5241825;27;20263;-95
2024/04/10 04:28:03;;;;;;;3.17;2.10;;;;;;;7.46;88.81;153275.06;5240661;27;20499;-94
2024/04/10 04:30:31;;;;;;;3.30;1.87;;;;;;;7.47;88.84;153277.63;5213048;27;20505;-94
2024/04/10 04:33:00;;;;;;;4.67;2.50;;;;;;;7.47;89.02;153277.63;5241113;27;20460;-95
2024/04/10 04:35:26;;;;;;;2.90;1.80;;;;;;;7.50;88.68;153285.38;5217146;27;20512;-93
2024/04/10 04:38:00;;;;;;;3.20;2.10;;;;;;;7.50;88.58;153285.38;5247774;27;20505;-94
2024/04/10 04:40:30;;;;;;;3.80;1.80;;;;;;;7.50;88.17;153286.66;5189157;27;20468;-94
2024/04/10 04:43:00;;;;;;;3.57;2.47;;;;;;;7.48;88.25;153280.22;5214762;27;20529;-95
2024/04/10 04:45:25;;;;;;;9.80;2.50;;;;;;;7.47;88.29;153278.91;5241545;27;20515;-94
2024/04/10 04:47:56;;;;;;;2.13;1.73;;;;;;;7.46;87.94;153275.06;5214002;27;20491;-95
2024/04/10 04:50:22;;;;;;;4.83;2.20;;;;;;;7.40;88.21;153259.53;5213625;27;20727;-96
2024/04/10 04:52:50;;;;;;;3.37;1.70;;;;;;;7.36;88.65;153250.50;5215449;27;20471;-87
2024/04/10 04:55:16;;;;;;;4.00;1.40;;;;;;;7.35;88.54;153249.25;5247728;27;20283;-94
2024/04/10 04:57:45;;;;;;;4.07;2.13;;;;;;;7.34;88.60;153246.63;5196100;27;20465;-96
2024/04/10 05:00:12;;;;;;;3.50;2.10;;;;;;;7.33;88.88;153244.03;5214940;27;20919;-96
2024/04/10 05:02:40;;;;;;;2.13;1.50;;;;;;;7.30;88.76;153236.34;5185437;27;20457;-96
2024/04/10 05:05:14;;;;;;;2.23;1.50;;;;;;;7.30;89.00;153236.34;5183552;27;20952;-96
2024/04/10 05:07:42;;;;;;;3.30;1.87;;;;;;;7.35;89.54;153247.94;5182921;27;20533;-96
2024/04/10 05:10:08;;;;;;;2.60;1.80;;;;;;;7.40;89.49;153259.53;5195868;27;20483;-87
2024/04/10 05:12:38;;;;;;;2.33;1.80;;;;;;;7.41;89.53;153263.44;5244088;27;20871;-96
2024/04/10 05:15:06;;;;;;;3.80;1.80;;;;;;;7.45;89.83;153272.47;5216025;27;20444;-96
2024/04/10 05:17:34;;;;;;;3.00;1.70;;;;;;;7.48;89.68;153280.22;5216084;27;21030;-96
2024/04/10 05:20:00;;;;;;;2.90;1.83;;;;;;;7.51;89.38;153287.97;5215944;27;20868;-96
2024/04/10 05:22:31;;;;;;;3.60;2.10;;;;;;;7.56;89.48;153300.88;5216081;27;20432;-94
2024/04/10 05:24:57;;;;;;;2.23;1.90;;;;;;;7.59;89.57;153308.63;5244846;27;20224;-94
2024/04/10 05:27:26;;;;;;;2.97;2.33;;;;;;;7.63;89.26;153318.94;5244923;27;20499;-95
2024/04/10 05:29:56;;;;;;;4.53;2.30;;;;;;;7.67;89.51;153329.31;5247288;27;20220;-96
2024/04/10 05:32:25;;;;;;;3.40;2.73;;;;;;;7.71;89.43;153340.91;5245354;27;21010;-96
2024/04/10 05:34:52;;;;;;;2.47;1.53;;;;;;;7.78;89.44;153357.72;5215392;27;20440;-96
2024/04/10 05:37:21;;;;;;;2.63;1.60;;;;;;;7.84;88.97;153374.50;5245054;27;20492;-95
2024/04/10 05:40:01;;;;;;;5.20;2.10;;;;;;;7.91;88.41;153391.31;5215392;27;21062;-96
2024/04/10 05:42:29;;;;;;;2.77;1.63;;;;;;;7.97;88.09;153406.78;5245334;27;20500;-96
2024/04/10 05:44:55;;;;;;;2.50;1.57;;;;;;;8.02;87.79;153418.44;5244585;27;20486;-96
2024/04/10 05:47:23;;;;;;;3.40;2.10;;;;;;;8.09;87.77;153437.81;5247338;27;20448;-96
2024/04/10 05:49:49;;;;;;;3.90;1.70;;;;;;;8.15;86.89;153452.03;5215241;27;20680;-95
2024/04/10 05:52:18;;;;;;;2.73;1.73;;;;;;;8.19;86.84;153463.66;5244697;27;20513;-96
2024/04/10 05:54:50;;;;;;;4.70;1.80;;;;;;;8.23;86.79;153474.03;5215934;27;20229;-95
2024/04/10 05:57:19;;;;;;;2.27;1.67;;;;;;;8.26;86.41;153481.75;5244676;27;20509;-95
2024/04/10 05:59:45;;;;;;;3.30;1.60;;;;;;;8.29;86.03;153489.56;5244204;27;20551;-93
2024/04/10 06:02:14;;;;;;;4.37;2.20;;;;;;;8.31;86.13;153494.72;5215979;27;20487;-96
2024/04/10 06:04:39;;;;;;;3.77;2.67;;;;;;;8.37;85.92;153510.22;5244225;27;21007;-96
2024/04/10 06:07:08;;;;;;;4.00;1.90;;;;;;;8.43;85.40;153524.47;5243867;27;20456;-95
2024/04/10 06:09:33;;;;;;;2.90;2.00;;;;;;;8.49;85.51;153541.28;5242657;27;20228;-96
2024/04/10 06:12:04;;;;;;;3.13;2.20;;;;;;;8.50;85.23;153543.84;5215533;27;20460;-95
2024/04/10 06:14:30;;;;;;;3.20;2.20;;;;;;;8.50;85.24;153543.84;5242564;27;20330;-96
2024/04/10 06:16:58;;;;;;;4.20;1.90;;;;;;;8.55;85.01;153556.75;5214481;27;20500;-95
2024/04/10 06:19:24;;;;;;;5.70;1.70;;;;;;;8.55;84.56;153556.75;5242602;27;20228;-95
2024/04/10 06:21:53;;;;;;;11.90;2.67;;;;;;;8.60;84.66;153567.13;5243979;27;20456;-95
2024/04/10 06:24:21;;;;;;;3.60;1.80;;;;;;;8.61;84.79;153570.97;5214290;27;20959;-94
2024/04/10 06:26:47;;;;;;;2.60;1.60;;;;;;;8.62;84.61;153572.28;5243715;27;20464;-95
2024/04/10 06:29:18;;;;;;;3.50;1.30;;;;;;;8.62;84.14;153573.59;5243646;27;20507;-95
2024/04/10 06:31:43;;;;;;;3.00;1.63;;;;;;;8.65;84.16;153580.03;5243929;27;20271;-95
2024/04/10 06:34:12;;;;;;;4.60;1.73;;;;;;;8.68;84.03;153587.81;5242173;27;20483;-95
2024/04/10 06:36:37;;;;;;;3.97;2.03;;;;;;;8.69;83.42;153591.66;5243770;27;20262;-96
2024/04/10 06:39:08;;;;;;;3.03;1.80;;;;;;;8.71;84.08;153595.56;5243781;27;20792;-96
2024/04/10 06:41:34;;;;;;;6.97;1.87;;;;;;;8.72;83.36;153599.44;5244862;27;20235;-95
2024/04/10 06:44:02;;;;;;;2.27;1.60;;;;;;;8.77;83.45;153612.34;5215580;27;21072;-95
2024/04/10 06:46:30;;;;;;;4.37;1.87;;;;;;;8.81;83.17;153621.41;5244794;27;20271;-95
2024/04/10 06:48:59;;;;;;;8.07;1.93;;;;;;;8.83;82.98;153626.59;5245354;27;20491;-95
2024/04/10 06:51:25;;;;;;;3.87;1.47;;;;;;;8.84;82.88;153630.44;5216033;27;21014;-95
2024/04/10 06:53:54;;;;;;;3.67;1.63;;;;;;;8.87;82.53;153638.22;5245499;27;20456;-94
2024/04/10 06:56:20;;;;;;;5.60;1.87;;;;;;;8.91;82.66;153647.28;5216650;27;20582;-94
2024/04/10 06:58:48;;;;;;;5.50;2.03;;;;;;;8.93;82.02;153652.44;5251379;27;20471;-95
2024/04/10 07:01:13;;;;;;;5.60;1.77;;;;;;;8.99;82.32;153667.97;5219245;27;20240;-95
2024/04/10 07:03:44;;;;;;;7.13;2.50;;;;;;;9.07;81.89;153688.66;5246959;27;20792;-94
2024/04/10 07:06:11;;;;;;;5.73;2.70;;;;;;;9.14;81.72;153706.75;5244441;27;20232;-94
2024/04/10 07:08:42;;;;;;;7.27;2.13;;;;;;;9.22;81.29;153727.44;5244682;27;20820;-94
2024/04/10 07:11:09;;;;;;;6.53;1.60;;;;;;;9.25;81.03;153735.22;5243451;27;20472;-95
2024/04/10 07:13:37;;;;;;;5.20;2.00;;;;;;;9.30;80.28;153746.84;5242170;27;20533;-94
2024/04/10 07:16:04;;;;;;;3.73;1.60;;;;;;;9.31;80.00;153749.44;5242618;27;21017;-94
2024/04/10 07:18:33;;;;;;;2.90;1.50;;;;;;;9.34;79.66;153757.22;5214624;27;20452;-94
2024/04/10 07:21:02;;;;;;;3.30;1.70;;;;;;;9.39;79.48;153771.44;5243147;27;20468;-94
2024/04/10 07:23:31;;;;;;;7.33;1.70;;;;;;;9.50;79.06;153798.59;5213667;27;20463;-94
2024/04/10 07:26:07;;;;;;;6.50;1.70;;;;;;;9.60;79.76;153825.78;5241134;27;20468;-96
2024/04/10 07:28:36;;;;;;;3.83;1.50;;;;;;;9.66;78.66;153841.25;5242685;27;20499;-95
2024/04/10 07:31:02;;;;;;;2.50;1.60;;;;;;;9.74;78.08;153861.97;5213577;27;20508;-94
2024/04/10 07:33:30;;;;;;;4.03;1.60;;;;;;;9.75;78.03;153864.56;5243252;27;20459;-95
2024/04/10 07:37:40;;;;;;;3.90;1.90;;;;;;;9.87;78.18;153893.06;5580343;25;20608;-93
2024/04/10 07:40:07;;;;;;;4.97;1.70;;;;;;;9.92;77.41;153907.28;5514916;25;20597;-93
2024/04/10 07:42:35;;;;;;;4.00;1.90;;;;;;;9.96;76.54;153916.31;5544803;25;20893;-94
2024/04/10 07:45:01;;;;;;;3.33;1.60;;;;;;;9.99;76.70;153924.09;5530048;25;20616;-95
2024/04/10 07:47:29;;;;;;;6.00;2.23;;;;;;;10.03;75.56;153934.47;5505928;25;20872;-92
2024/04/10 07:49:55;;;;;;;3.90;1.50;;;;;;;10.05;75.16;153939.63;5511443;25;20322;-94
2024/04/10 07:52:23;;;;;;;6.70;1.43;;;;;;;10.11;74.98;153955.19;5520620;25;20487;-92
2024/04/10 07:54:51;;;;;;;7.03;1.60;;;;;;;10.21;75.97;153982.41;5523814;25;20590;-91
2024/04/10 07:57:20;;;;;;;3.57;1.40;;;;;;;10.29;75.68;154001.81;5518860;25;20539;-92
2024/04/10 07:59:46;;;;;;;3.30;1.60;;;;;;;10.37;75.31;154022.53;5507056;25;20469;-92
2024/04/10 08:02:14;;;;;;;3.23;1.93;;;;;;;10.41;74.12;154032.88;5526241;25;20473;-92
2024/04/10 08:04:39;;;;;;;4.40;1.43;;;;;;;10.49;73.58;154053.59;5519382;25;20574;-92
2024/04/10 08:07:08;;;;;;;7.27;1.97;;;;;;;10.56;73.07;154071.75;5532051;25;20476;-92
2024/04/10 08:09:33;;;;;;;3.40;1.40;;;;;;;10.66;72.62;154096.31;5521452;25;20566;-92
2024/04/10 08:12:04;;;;;;;11.20;2.73;;;;;;;10.77;71.31;154126.13;5502044;25;20562;-92
2024/04/10 08:14:31;;;;;;;2.93;1.53;;;;;;;10.83;71.51;154141.63;5512547;25;20731;-92
2024/04/10 08:16:59;;;;;;;3.30;2.13;;;;;;;10.90;70.81;154159.78;5527081;25;20465;-92
2024/04/10 08:19:25;;;;;;;5.90;1.90;;;;;;;11.04;70.75;154193.47;5520006;25;20570;-93
2024/04/10 08:21:53;;;;;;;5.97;2.00;;;;;;;11.18;70.26;154231.00;5512470;25;20465;-93
2024/04/10 08:24:19;;;;;;;4.37;1.90;;;;;;;11.29;67.54;154259.53;5508630;25;20521;-93
2024/04/10 08:26:47;;;;;;;5.50;2.50;;;;;;;11.40;68.23;154288.03;5518653;25;20471;-93
2024/04/10 08:29:15;;;;;;;8.70;2.77;;;;;;;11.54;68.55;154323.03;5519742;25;20724;-93
2024/04/10 08:31:43;;;;;;;2.77;1.50;;;;;;;11.64;67.19;154348.94;5512900;25;21054;-92
2024/04/10 08:34:10;;;;;;;4.73;1.90;;;;;;;11.67;66.50;154356.72;5506903;25;20700;-92
2024/04/10 08:36:39;;;;;;;4.60;1.60;;;;;;;11.67;66.23;154355.41;5512087;25;20583;-93
2024/04/10 08:39:04;;;;;;;5.20;1.70;;;;;;;11.62;65.82;154343.75;5525375;25;20515;-93
2024/04/10 08:41:36;;;;;;;8.57;1.87;;;;;;;11.36;64.50;154276.34;5516723;25;20902;-91
2024/04/10 08:44:02;;;;;;;9.97;1.93;;;;;;;11.20;65.87;154236.19;5514892;25;21172;-93
2024/04/10 08:46:34;;;;;;;4.63;2.20;;;;;;;11.04;64.68;154194.72;5522815;25;20509;-94
2024/04/10 08:49:01;;;;;;;6.00;2.30;;;;;;;11.00;66.04;154184.38;5503635;26;20611;-94
2024/04/10 08:51:31;;;;;;;4.67;2.20;;;;;;;10.99;64.77;154181.78;5496118;26;20453;-93
2024/04/10 08:53:58;;;;;;;5.77;2.30;;;;;;;11.09;66.07;154207.72;5496585;26;20514;-93
2024/04/10 08:56:26;;;;;;;6.00;2.33;;;;;;;11.20;64.97;154234.94;5498516;25;20594;-93
2024/04/10 08:58:53;;;;;;;6.17;2.37;;;;;;;11.24;63.97;154245.25;5505207;26;20477;-93
2024/04/10 09:01:28;;;;;;;4.63;2.17;;;;;;;11.17;62.86;154227.16;5497235;26;20516;-93
2024/04/10 09:03:56;;;;;;;8.73;2.80;;;;;;;11.17;63.64;154228.44;5490515;26;21257;-92
2024/04/10 09:06:24;;;;;;;5.27;2.50;;;;;;;11.10;65.05;154208.97;5531480;25;20522;-91
2024/04/10 09:08:57;;;;;;;4.50;2.20;;;;;;;11.10;64.12;154208.97;5500126;26;20611;-92
2024/04/10 09:11:26;;;;;;;6.40;3.50;;;;;;;11.27;65.91;154254.34;5503237;26;20470;-91
2024/04/10 09:13:59;;;;;;;3.70;2.10;;;;;;;11.44;65.70;154298.38;5507945;25;20465;-92
2024/04/10 09:16:27;;;;;;;4.20;2.07;;;;;;;11.51;64.34;154315.25;5503245;26;20466;-94
2024/04/10 09:18:55;;;;;;;8.00;3.10;;;;;;;11.51;64.01;154315.25;5510442;26;20476;-95
2024/04/10 09:21:24;;;;;;;5.33;2.90;;;;;;;11.61;62.70;154341.16;5516833;26;20462;-94
2024/04/10 09:23:58;;;;;;;3.93;2.80;;;;;;;11.83;62.44;154398.22;5500028;26;20470;-94
2024/04/10 09:26:26;;;;;;;4.00;2.47;;;;;;;12.00;60.24;154442.28;5494132;26;20470;-93
2024/04/10 09:29:02;;;;;;;4.80;2.70;;;;;;;12.01;60.49;154443.59;5501887;26;20975;-93
2024/04/10 09:31:30;;;;;;;2.73;2.43;;;;;;;11.71;60.95;154367.09;5499636;26;20477;-92
2024/04/10 09:34:06;;;;;;;3.57;1.93;;;;;;;11.62;61.07;154343.75;5468545;26;20995;-91
2024/04/10 09:36:35;;;;;;;2.77;2.40;;;;;;;11.72;61.50;154369.72;5493404;26;21011;-94
2024/04/10 09:39:01;;;;;;;6.10;2.10;;;;;;;11.82;61.12;154395.63;5512738;26;20473;-94
2024/04/10 09:41:31;;;;;;;5.50;2.77;;;;;;;11.95;61.15;154429.31;5501040;26;20854;-92
2024/04/10 09:43:58;;;;;;;6.23;2.40;;;;;;;11.94;59.43;154426.72;5505915;25;20344;-93
2024/04/10 09:46:36;;;;;;;6.20;3.30;;;;;;;11.66;59.17;154354.09;5502936;26;20506;-93
2024/04/10 09:49:11;;;;;;;4.07;2.97;;;;;;;11.75;60.34;154377.50;5465439;26;20528;-93
2024/04/10 09:51:40;;;;;;;4.03;2.50;;;;;;;11.77;54.81;154382.66;5525860;25;20474;-93
2024/04/10 09:54:06;;;;;;;3.57;2.17;;;;;;;11.73;56.08;154372.28;5505158;26;20464;-93
2024/04/10 09:56:35;;;;;;;3.13;2.53;;;;;;;11.61;54.56;154341.16;5506317;26;20513;-92
2024/04/10 09:59:01;;;;;;;5.03;2.60;;;;;;;11.51;55.09;154315.25;5496512;26;20252;-92
2024/04/10 10:01:29;;;;;;;5.20;2.67;;;;;;;11.69;56.19;154361.94;5499489;26;20873;-93
2024/04/10 10:03:55;;;;;;;3.70;2.07;;;;;;;11.98;57.17;154437.09;5486468;26;20561;-92
2024/04/10 10:06:34;;;;;;;3.57;1.77;;;;;;;12.28;57.35;154513.59;5498246;26;20591;-92
2024/04/10 10:08:59;;;;;;;7.27;3.30;;;;;;;12.32;54.97;154522.66;5499962;26;20478;-92
2024/04/10 10:11:31;;;;;;;4.80;3.07;;;;;;;12.21;56.05;154496.72;5503896;26;20586;-91
2024/04/10 10:13:57;;;;;;;5.20;3.00;;;;;;;11.97;55.96;154434.50;5503029;26;20239;-92
2024/04/10 10:16:26;;;;;;;3.80;2.90;;;;;;;11.82;55.23;154394.31;5501490;25;20504;-92
2024/04/10 10:18:53;;;;;;;7.80;2.60;;;;;;;11.79;56.51;154387.84;5471859;26;20252;-93
2024/04/10 10:21:23;;;;;;;4.83;3.10;;;;;;;11.89;56.26;154413.75;5502342;26;20466;-93
2024/04/10 10:24:01;;;;;;;3.53;2.70;;;;;;;11.96;57.52;154430.63;5498180;26;20480;-92
2024/04/10 10:26:30;;;;;;;2.77;2.47;;;;;;;12.09;56.71;154465.63;5504104;26;20587;-92
2024/04/10 10:29:02;;;;;;;4.57;2.60;;;;;;;12.11;55.48;154470.81;5493401;26;21074;-93
2024/04/10 10:31:30;;;;;;;4.40;2.50;;;;;;;12.15;54.79;154481.16;5496643;26;20470;-93
2024/04/10 10:33:59;;;;;;;3.40;2.37;;;;;;;12.23;54.22;154501.91;5493288;25;20521;-92
2024/04/10 10:36:33;;;;;;;4.40;2.40;;;;;;;12.33;54.59;154526.56;5504853;26;20596;-92
2024/04/10 10:39:08;;;;;;;2.10;1.87;;;;;;;12.46;54.29;154558.97;5501303;25;20518;-91
2024/04/10 10:41:37;;;;;;;2.60;2.40;;;;;;;12.58;52.67;154590.06;5498274;26;20474;-92
2024/04/10 10:44:03;;;;;;;3.67;2.37;;;;;;;12.74;51.92;154631.56;5465385;26;20482;-91
2024/04/10 10:46:31;;;;;;;2.80;2.17;;;;;;;12.77;49.44;154639.38;5497184;26;20474;-91
2024/04/10 10:48:56;;;;;;;4.53;2.50;;;;;;;12.83;51.46;154654.94;5498643;26;20469;-90
2024/04/10 10:51:25;;;;;;;4.93;2.50;;;;;;;13.01;51.30;154701.63;5496355;26;20546;-91
2024/04/10 10:53:51;;;;;;;4.57;2.87;;;;;;;13.05;51.22;154712.00;5484665;26;20244;-92
2024/04/10 10:56:27;;;;;;;4.63;2.57;;;;;;;13.10;51.49;154725.06;5494965;26;20580;-91
2024/04/10 10:58:53;;;;;;;2.80;2.23;;;;;;;13.06;50.01;154713.28;5497049;26;20574;-90
2024/04/10 11:01:22;;;;;;;5.40;2.40;;;;;;;12.79;49.09;154645.84;5495998;26;20586;-92
2024/04/10 11:03:48;;;;;;;3.87;2.27;;;;;;;12.64;48.59;154605.66;5497704;25;20517;-89
2024/04/10 11:06:16;;;;;;;3.80;2.20;;;;;;;12.55;47.12;154582.34;5506112;25;20840;-90
2024/04/10 11:08:42;;;;;;;3.30;1.60;;;;;;;12.40;47.42;154543.41;5488159;26;20280;-92
2024/04/10 11:11:16;;;;;;;2.53;1.67;;;;;;;12.30;47.70;154518.78;5488958;26;20509;-91
2024/04/10 11:13:50;;;;;;;5.27;1.83;;;;;;;12.48;49.17;154564.16;5503916;26;20304;-90
2024/04/10 11:16:29;;;;;;;4.23;1.90;;;;;;;12.68;49.92;154617.31;5507165;26;20820;-91
2024/04/10 11:18:55;;;;;;;3.70;2.07;;;;;;;12.84;48.54;154657.50;5497999;26;20473;-91
2024/04/10 11:21:23;;;;;;;7.80;2.10;;;;;;;12.87;48.76;154665.28;5513338;26;20583;-91
2024/04/10 11:23:49;;;;;;;2.83;1.80;;;;;;;13.01;48.53;154701.63;5494405;25;20253;-91
2024/04/10 11:26:17;;;;;;;3.43;1.73;;;;;;;13.04;46.56;154709.44;5491917;26;20865;-91
2024/04/10 11:28:43;;;;;;;4.17;1.80;;;;;;;13.05;47.64;154710.72;5499238;25;20372;-91
2024/04/10 11:31:15;;;;;;;3.70;1.93;;;;;;;13.03;47.57;154706.81;5497438;25;20469;-92
2024/04/10 11:33:40;;;;;;;2.20;1.70;;;;;;;12.94;46.60;154683.50;5501454;26;20874;-91
2024/04/10 11:36:09;;;;;;;2.93;1.90;;;;;;;12.87;46.71;154665.28;5501203;26;20535;-91
2024/04/10 11:38:37;;;;;;;3.20;2.00;;;;;;;12.80;46.39;154648.47;5501772;26;20702;-92